Hatsu Envoy — VSQL9 — position and weather

sailwx.info

Track history (hours):
 
Tides and Currents Weather Stations Pressure Air Temp Water Temp Dewpoint Dewpoint Depression Visibility Wind Speed Wind Dir Waves Ship Positions

Hatsu Envoy

Last reported at 2015-May-06 22:33 UTC. Time now 2015-May-06 23:35 UTC.
Position N 34°49' E 123°16'.

Type: Cargo ship. MMSI: 235414000.

Date/timePositionNaut miles runAvg speedWind from/ knotsBaromVisibWave heightAir tempDewpointWater temp
2015-May-06 22:33N 34°49' E 123°16'1313.2
2015-May-06 21:33N 34°41' E 123°30'1913.4
2015-May-06 20:09N 34°32' E 123°50'3613.5
2015-May-06 17:30N 34°13' E 124°26'1313.9
2015-May-06 16:33N 34°06' E 124°40'1913.9
2015-May-06 15:10N 33°56' E 125°00'2313.6
2015-May-06 13:30N 33°48' E 125°25'19714.1
2015-May-05 23:33N 35°05' E 129°05'1 1.0
2015-May-05 22:33N 35°06' E 129°04'0 0.0
2015-May-05 21:33N 35°06' E 129°04'0 0.0
2015-May-05 20:33N 35°06' E 129°04'0 0.0
2015-May-05 19:33N 35°06' E 129°04'0 0.3
2015-May-05 18:33N 35°06' E 129°05'8 7.5
2015-May-05 17:31N 35°00' E 129°11'7217.4
2015-May-05 13:21N 33°50' E 128°49'30310.9
2015-May-04 09:33N 33°58' E 134°54'1615.5
2015-May-04 08:33N 34°13' E 134°56'1514.9
2015-May-04 07:33N 34°26' E 135°06'1716.6
2015-May-04 06:33N 34°37' E 135°21'3 3.4
2015-May-04 05:33N 34°39' E 135°24'0 0.0
2015-May-04 04:31N 34°39' E 135°24'0 0.0
2015-May-04 03:33N 34°39' E 135°24'0 0.0
2015-May-04 02:33N 34°39' E 135°24'0 0.0
2015-May-04 01:33N 34°39' E 135°24'0 0.0
2015-May-04 00:33N 34°39' E 135°24'0 0.0
2015-May-03 23:33N 34°39' E 135°24'0 0.0
2015-May-03 22:33N 34°39' E 135°24'9 9.5
2015-May-03 21:33N 34°32' E 135°16'1817.9
2015-May-03 20:33N 34°19' E 135°01'1211.9
2015-May-03 19:33N 34°07' E 135°00'1211.8
2015-May-03 18:33N 33°56' E 134°60'22313.1
2015-May-03 01:33N 34°52' E 139°21'1615.6
2015-May-03 00:33N 35°01' E 139°36'1413.7
2015-May-02 23:33N 35°12' E 139°46'1212.4
2015-May-02 22:33N 35°25' E 139°43'1111.3
2015-May-02 21:33N 35°35' E 139°47'1 1.3
2015-May-02 20:32N 35°37' E 139°47'0 0.0
2015-May-02 19:32N 35°37' E 139°47'0 0.0
2015-May-02 18:32N 35°37' E 139°47'0 0.0
2015-May-02 17:29N 35°37' E 139°47'0 0.0
2015-May-02 16:29N 35°37' E 139°47'0 0.1
2015-May-02 15:32N 35°37' E 139°47'0 0.0
2015-May-02 14:29N 35°37' E 139°47'0 0.0
2015-May-02 13:32N 35°37' E 139°47'0 0.0
2015-May-02 12:29N 35°37' E 139°47'0 0.1
2015-May-02 11:32N 35°37' E 139°47'0 0.0
2015-May-02 10:32N 35°37' E 139°47'1 0.9
2015-May-02 09:34N 35°36' E 139°47'9 9.1
2015-May-02 08:33N 35°27' E 139°49'1211.8
2015-May-02 07:33N 35°15' E 139°47'1111.0
2015-May-02 06:33N 35°05' E 139°46'6 6.5
2015-May-02 05:33N 34°59' E 139°42'1510.1
2015-May-02 04:04N 34°50' E 139°57'713.9
2015-May-02 03:33N 34°51' E 140°06'1715.0
2015-May-02 02:23N 35°02' E 140°22'1315.2
2015-May-02 01:33N 35°10' E 140°34'1515.5
2015-May-02 00:33N 35°21' E 140°48'1716.8
2015-May-01 23:32N 35°32' E 141°03'1616.2
2015-May-01 22:33N 35°43' E 141°18'1616.5
2015-May-01 21:33N 35°54' E 141°32'1616.4
2015-May-01 20:33N 36°07' E 141°46'1616.3
2015-May-01 19:33N 36°18' E 141°60'1717.3
2015-May-01 18:33N 36°31' E 142°14'2617.7
2015-May-01 17:05N 36°50' E 142°37'1218.0
2015-May-01 16:26N 36°59' E 142°47'3517.8
2015-May-01 14:27N 37°24' E 143°17'1718.5
2015-May-01 13:33N 37°36' E 143°31'2018.7
2015-May-01 12:30N 37°50' E 143°48'  
Track history (hours):
 
Tides and Currents Weather Stations Pressure Air Temp Water Temp Dewpoint Dewpoint Depression Visibility Wind Speed Wind Dir Waves Ship Positions

Hatsu Envoy

Last reported at 2015-May-06 22:33 UTC. Time now 2015-May-06 23:35 UTC.
Position N 34°49' E 123°16'.

Type: Cargo ship. MMSI: 235414000.

Date/timePositionNaut miles runAvg speedWind from/ knotsBaromVisibWave heightAir tempDewpointWater temp
2015-May-06 22:33N 34°49' E 123°16'1313.2
2015-May-06 21:33N 34°41' E 123°30'1913.4
2015-May-06 20:09N 34°32' E 123°50'3613.5
2015-May-06 17:30N 34°13' E 124°26'1313.9
2015-May-06 16:33N 34°06' E 124°40'1913.9
2015-May-06 15:10N 33°56' E 125°00'2313.6
2015-May-06 13:30N 33°48' E 125°25'19714.1
2015-May-05 23:33N 35°05' E 129°05'1 1.0
2015-May-05 22:33N 35°06' E 129°04'0 0.0
2015-May-05 21:33N 35°06' E 129°04'0 0.0
2015-May-05 20:33N 35°06' E 129°04'0 0.0
2015-May-05 19:33N 35°06' E 129°04'0 0.3
2015-May-05 18:33N 35°06' E 129°05'8 7.5
2015-May-05 17:31N 35°00' E 129°11'7217.4
2015-May-05 13:21N 33°50' E 128°49'30310.9
2015-May-04 09:33N 33°58' E 134°54'1615.5
2015-May-04 08:33N 34°13' E 134°56'1514.9
2015-May-04 07:33N 34°26' E 135°06'1716.6
2015-May-04 06:33N 34°37' E 135°21'3 3.4
2015-May-04 05:33N 34°39' E 135°24'0 0.0
2015-May-04 04:31N 34°39' E 135°24'0 0.0
2015-May-04 03:33N 34°39' E 135°24'0 0.0
2015-May-04 02:33N 34°39' E 135°24'0 0.0
2015-May-04 01:33N 34°39' E 135°24'0 0.0
2015-May-04 00:33N 34°39' E 135°24'0 0.0
2015-May-03 23:33N 34°39' E 135°24'0 0.0
2015-May-03 22:33N 34°39' E 135°24'9 9.5
2015-May-03 21:33N 34°32' E 135°16'1817.9
2015-May-03 20:33N 34°19' E 135°01'1211.9
2015-May-03 19:33N 34°07' E 135°00'1211.8
2015-May-03 18:33N 33°56' E 134°60'22313.1
2015-May-03 01:33N 34°52' E 139°21'1615.6
2015-May-03 00:33N 35°01' E 139°36'1413.7
2015-May-02 23:33N 35°12' E 139°46'1212.4
2015-May-02 22:33N 35°25' E 139°43'1111.3
2015-May-02 21:33N 35°35' E 139°47'1 1.3
2015-May-02 20:32N 35°37' E 139°47'0 0.0
2015-May-02 19:32N 35°37' E 139°47'0 0.0
2015-May-02 18:32N 35°37' E 139°47'0 0.0
2015-May-02 17:29N 35°37' E 139°47'0 0.0
2015-May-02 16:29N 35°37' E 139°47'0 0.1
2015-May-02 15:32N 35°37' E 139°47'0 0.0
2015-May-02 14:29N 35°37' E 139°47'0 0.0
2015-May-02 13:32N 35°37' E 139°47'0 0.0
2015-May-02 12:29N 35°37' E 139°47'0 0.1
2015-May-02 11:32N 35°37' E 139°47'0 0.0
2015-May-02 10:32N 35°37' E 139°47'1 0.9
2015-May-02 09:34N 35°36' E 139°47'9 9.1
2015-May-02 08:33N 35°27' E 139°49'1211.8
2015-May-02 07:33N 35°15' E 139°47'1111.0
2015-May-02 06:33N 35°05' E 139°46'6 6.5
2015-May-02 05:33N 34°59' E 139°42'1510.1
2015-May-02 04:04N 34°50' E 139°57'713.9
2015-May-02 03:33N 34°51' E 140°06'1715.0
2015-May-02 02:23N 35°02' E 140°22'1315.2
2015-May-02 01:33N 35°10' E 140°34'1515.5
2015-May-02 00:33N 35°21' E 140°48'1716.8
2015-May-01 23:32N 35°32' E 141°03'1616.2
2015-May-01 22:33N 35°43' E 141°18'1616.5
2015-May-01 21:33N 35°54' E 141°32'1616.4
2015-May-01 20:33N 36°07' E 141°46'1616.3
2015-May-01 19:33N 36°18' E 141°60'1717.3
2015-May-01 18:33N 36°31' E 142°14'2617.7
2015-May-01 17:05N 36°50' E 142°37'1218.0
2015-May-01 16:26N 36°59' E 142°47'3517.8
2015-May-01 14:27N 37°24' E 143°17'1718.5
2015-May-01 13:33N 37°36' E 143°31'2018.7
2015-May-01 12:30N 37°50' E 143°48'  

Dump ship's entire track history